sensor_id;sensor_type;location;lat;lon;timestamp;pressure;altitude;pressure_sealevel;temperature;humidity
34370;BME280;20635;55.812;37.560;2023-04-27T00:01:13;98679.09;;;26.79;30.38
34370;BME280;20635;55.812;37.560;2023-04-27T00:03:39;98677.47;;;26.78;30.54
34370;BME280;20635;55.812;37.560;2023-04-27T00:06:06;98680.28;;;26.78;30.60
34370;BME280;20635;55.812;37.560;2023-04-27T00:08:32;98680.28;;;26.78;30.56
34370;BME280;20635;55.812;37.560;2023-04-27T00:10:58;98682.28;;;26.77;30.46
34370;BME280;20635;55.812;37.560;2023-04-27T00:13:24;98687.09;;;26.77;30.65
34370;BME280;20635;55.812;37.560;2023-04-27T00:15:49;98689.91;;;26.77;30.61
34370;BME280;20635;55.812;37.560;2023-04-27T00:18:15;98688.28;;;26.76;30.47
34370;BME280;20635;55.812;37.560;2023-04-27T00:20:41;98682.66;;;26.76;30.56
34370;BME280;20635;55.812;37.560;2023-04-27T00:23:07;98696.72;;;26.76;30.59
34370;BME280;20635;55.812;37.560;2023-04-27T00:25:32;98698.72;;;26.75;30.62
34370;BME280;20635;55.812;37.560;2023-04-27T00:27:58;98693.09;;;26.75;30.73
34370;BME280;20635;55.812;37.560;2023-04-27T00:30:24;98686.63;;;26.75;30.55
34370;BME280;20635;55.812;37.560;2023-04-27T00:32:49;98689.44;;;26.75;30.58
34370;BME280;20635;55.812;37.560;2023-04-27T00:35:15;98699.06;;;26.74;30.51
34370;BME280;20635;55.812;37.560;2023-04-27T00:37:41;98692.25;;;26.75;30.46
34370;BME280;20635;55.812;37.560;2023-04-27T00:40:07;98704.69;;;26.74;30.56
34370;BME280;20635;55.812;37.560;2023-04-27T00:42:33;98704.69;;;26.74;30.47
34370;BME280;20635;55.812;37.560;2023-04-27T00:44:59;98705.88;;;26.73;30.52
34370;BME280;20635;55.812;37.560;2023-04-27T00:47:25;98697.44;;;26.73;30.64
34370;BME280;20635;55.812;37.560;2023-04-27T00:49:51;98702.25;;;26.72;30.42
34370;BME280;20635;55.812;37.560;2023-04-27T00:52:17;98708.25;;;26.71;30.64
34370;BME280;20635;55.812;37.560;2023-04-27T00:54:43;98705.44;;;26.71;30.60
34370;BME280;20635;55.812;37.560;2023-04-27T00:57:09;98711.06;;;26.71;30.57
34370;BME280;20635;55.812;37.560;2023-04-27T00:59:35;98699.81;;;26.71;30.44
34370;BME280;20635;55.812;37.560;2023-04-27T01:02:00;98701.78;;;26.70;30.64
34370;BME280;20635;55.812;37.560;2023-04-27T01:04:26;98695.34;;;26.70;30.53
34370;BME280;20635;55.812;37.560;2023-04-27T01:06:53;98700.16;;;26.69;30.42
34370;BME280;20635;55.812;37.560;2023-04-27T01:09:19;98704.97;;;26.69;30.65
34370;BME280;20635;55.812;37.560;2023-04-27T01:11:45;98707.78;;;26.69;30.47
34370;BME280;20635;55.812;37.560;2023-04-27T01:14:11;98704.97;;;26.69;30.43
34370;BME280;20635;55.812;37.560;2023-04-27T01:16:36;98700.53;;;26.68;30.45
34370;BME280;20635;55.812;37.560;2023-04-27T01:19:03;98692.09;;;26.68;30.54
34370;BME280;20635;55.812;37.560;2023-04-27T01:21:29;98694.91;;;26.68;30.48
34370;BME280;20635;55.812;37.560;2023-04-27T01:23:57;98694.09;;;26.67;30.68
34370;BME280;20635;55.812;37.560;2023-04-27T01:26:23;98693.28;;;26.67;30.72
34370;BME280;20635;55.812;37.560;2023-04-27T01:28:48;98690.47;;;26.67;30.55
34370;BME280;20635;55.812;37.560;2023-04-27T01:31:14;98698.09;;;26.66;30.62
34370;BME280;20635;55.812;37.560;2023-04-27T01:33:40;98700.06;;;26.66;30.58
34370;BME280;20635;55.812;37.560;2023-04-27T01:36:06;98703.72;;;26.66;30.74
34370;BME280;20635;55.812;37.560;2023-04-27T01:38:32;98704.88;;;26.65;30.59
34370;BME280;20635;55.812;37.560;2023-04-27T01:40:58;98698.44;;;26.65;30.69
34370;BME280;20635;55.812;37.560;2023-04-27T01:43:27;98700.44;;;26.64;30.60
34370;BME280;20635;55.812;37.560;2023-04-27T01:45:53;98706.88;;;26.65;30.70
34370;BME280;20635;55.812;37.560;2023-04-27T01:48:20;98705.25;;;26.64;30.47
34370;BME280;20635;55.812;37.560;2023-04-27T01:50:46;98705.25;;;26.64;30.49
34370;BME280;20635;55.812;37.560;2023-04-27T01:53:12;98703.63;;;26.63;30.52
34370;BME280;20635;55.812;37.560;2023-04-27T01:55:38;98704.44;;;26.63;30.62
34370;BME280;20635;55.812;37.560;2023-04-27T01:58:03;98703.63;;;26.63;30.62
34370;BME280;20635;55.812;37.560;2023-04-27T02:00:30;98707.25;;;26.63;30.67
34370;BME280;20635;55.812;37.560;2023-04-27T02:02:57;98704.81;;;26.62;30.81
34370;BME280;20635;55.812;37.560;2023-04-27T02:05:25;98703.97;;;26.61;30.57
34370;BME280;20635;55.812;37.560;2023-04-27T02:07:51;98701.16;;;26.61;30.78
34370;BME280;20635;55.812;37.560;2023-04-27T02:10:17;98701.16;;;26.61;30.58
34370;BME280;20635;55.812;37.560;2023-04-27T02:12:43;98707.97;;;26.60;30.59
34370;BME280;20635;55.812;37.560;2023-04-27T02:15:09;98712.78;;;26.60;30.71
34370;BME280;20635;55.812;37.560;2023-04-27T02:17:35;98715.59;;;26.60;30.60
34370;BME280;20635;55.812;37.560;2023-04-27T02:20:01;98721.56;;;26.58;30.69
34370;BME280;20635;55.812;37.560;2023-04-27T02:22:26;98718.75;;;26.58;30.63
34370;BME280;20635;55.812;37.560;2023-04-27T02:24:52;98726.00;;;26.59;30.60
34370;BME280;20635;55.812;37.560;2023-04-27T02:27:19;98725.19;;;26.59;30.73
34370;BME280;20635;55.812;37.560;2023-04-27T02:29:45;98729.19;;;26.58;30.60
34370;BME280;20635;55.812;37.560;2023-04-27T02:32:10;98732.81;;;26.58;30.59
34370;BME280;20635;55.812;37.560;2023-04-27T02:34:37;98747.69;;;26.59;30.66
34370;BME280;20635;55.812;37.560;2023-04-27T02:37:03;98746.06;;;26.58;30.58
34370;BME280;20635;55.812;37.560;2023-04-27T02:39:29;98738.78;;;26.56;30.57
34370;BME280;20635;55.812;37.560;2023-04-27T02:41:54;98748.03;;;26.57;30.68
34370;BME280;20635;55.812;37.560;2023-04-27T02:44:20;98744.41;;;26.56;30.49
34370;BME280;20635;55.812;37.560;2023-04-27T02:46:46;98747.22;;;26.56;30.65
34370;BME280;20635;55.812;37.560;2023-04-27T02:49:11;98737.97;;;26.56;30.64
34370;BME280;20635;55.812;37.560;2023-04-27T02:51:37;98752.00;;;26.56;30.68
34370;BME280;20635;55.812;37.560;2023-04-27T02:54:03;98751.19;;;26.55;30.58
34370;BME280;20635;55.812;37.560;2023-04-27T02:56:29;98756.00;;;26.55;30.65
34370;BME280;20635;55.812;37.560;2023-04-27T02:58:55;98756.00;;;26.55;30.67
34370;BME280;20635;55.812;37.560;2023-04-27T03:01:20;98761.63;;;26.55;30.59
34370;BME280;20635;55.812;37.560;2023-04-27T03:03:46;98758.00;;;26.54;30.61
34370;BME280;20635;55.812;37.560;2023-04-27T03:06:12;98763.63;;;26.54;30.80
34370;BME280;20635;55.812;37.560;2023-04-27T03:08:38;98766.44;;;26.54;30.62
34370;BME280;20635;55.812;37.560;2023-04-27T03:11:04;98768.44;;;26.54;30.66
34370;BME280;20635;55.812;37.560;2023-04-27T03:13:30;98769.25;;;26.54;30.62
34370;BME280;20635;55.812;37.560;2023-04-27T03:16:00;98772.88;;;26.55;30.52
34370;BME280;20635;55.812;37.560;2023-04-27T03:18:26;98776.03;;;26.53;30.77
34370;BME280;20635;55.812;37.560;2023-04-27T03:20:51;98776.03;;;26.53;30.61
34370;BME280;20635;55.812;37.560;2023-04-27T03:23:17;98768.44;;;26.54;30.59
34370;BME280;20635;55.812;37.560;2023-04-27T03:25:43;98770.44;;;26.53;30.71
34370;BME280;20635;55.812;37.560;2023-04-27T03:28:09;98769.63;;;26.53;30.62
34370;BME280;20635;55.812;37.560;2023-04-27T03:30:34;98773.25;;;26.53;30.58
34370;BME280;20635;55.812;37.560;2023-04-27T03:33:00;98774.41;;;26.52;30.62
34370;BME280;20635;55.812;37.560;2023-04-27T03:35:28;98771.59;;;26.52;30.84
34370;BME280;20635;55.812;37.560;2023-04-27T03:37:54;98771.59;;;26.52;30.73
34370;BME280;20635;55.812;37.560;2023-04-27T03:40:19;98782.00;;;26.52;30.64
34370;BME280;20635;55.812;37.560;2023-04-27T03:42:45;98784.47;;;26.53;30.66
34370;BME280;20635;55.812;37.560;2023-04-27T03:45:11;98788.81;;;26.51;30.69
34370;BME280;20635;55.812;37.560;2023-04-27T03:47:37;98794.06;;;26.52;30.73
34370;BME280;20635;55.812;37.560;2023-04-27T03:50:03;98801.69;;;26.52;30.55
34370;BME280;20635;55.812;37.560;2023-04-27T03:52:29;98800.84;;;26.51;30.75
34370;BME280;20635;55.812;37.560;2023-04-27T03:54:55;98803.66;;;26.51;30.68
34370;BME280;20635;55.812;37.560;2023-04-27T03:57:20;98800.06;;;26.51;30.77
34370;BME280;20635;55.812;37.560;2023-04-27T03:59:46;98797.25;;;26.51;30.79
34370;BME280;20635;55.812;37.560;2023-04-27T04:02:12;98799.22;;;26.50;30.76
34370;BME280;20635;55.812;37.560;2023-04-27T04:04:38;98806.47;;;26.51;30.52
34370;BME280;20635;55.812;37.560;2023-04-27T04:07:04;98802.84;;;26.51;30.66
34370;BME280;20635;55.812;37.560;2023-04-27T04:09:30;98807.66;;;26.50;30.69
34370;BME280;20635;55.812;37.560;2023-04-27T04:11:56;98797.25;;;26.51;30.70
34370;BME280;20635;55.812;37.560;2023-04-27T04:14:23;98812.09;;;26.51;30.71
34370;BME280;20635;55.812;37.560;2023-04-27T04:16:48;98810.47;;;26.50;30.68
34370;BME280;20635;55.812;37.560;2023-04-27T04:19:14;98813.28;;;26.50;30.63
34370;BME280;20635;55.812;37.560;2023-04-27T04:21:40;98814.91;;;26.51;30.64
34370;BME280;20635;55.812;37.560;2023-04-27T04:24:07;98816.91;;;26.51;30.66
34370;BME280;20635;55.812;37.560;2023-04-27T04:26:32;98814.91;;;26.51;30.75
34370;BME280;20635;55.812;37.560;2023-04-27T04:28:58;98821.34;;;26.52;30.74
34370;BME280;20635;55.812;37.560;2023-04-27T04:31:24;98826.16;;;26.51;30.80
34370;BME280;20635;55.812;37.560;2023-04-27T04:33:50;98817.72;;;26.51;30.74
34370;BME280;20635;55.812;37.560;2023-04-27T04:36:16;98822.53;;;26.51;30.79
34370;BME280;20635;55.812;37.560;2023-04-27T04:38:42;98822.16;;;26.52;30.63
34370;BME280;20635;55.812;37.560;2023-04-27T04:41:08;98827.78;;;26.52;30.76
34370;BME280;20635;55.812;37.560;2023-04-27T04:43:36;98819.34;;;26.52;30.89
34370;BME280;20635;55.812;37.560;2023-04-27T04:46:04;98822.53;;;26.51;30.78
34370;BME280;20635;55.812;37.560;2023-04-27T04:48:30;98822.16;;;26.52;30.92
34370;BME280;20635;55.812;37.560;2023-04-27T04:50:56;98820.53;;;26.51;30.66
34370;BME280;20635;55.812;37.560;2023-04-27T04:53:22;98817.72;;;26.51;30.68
34370;BME280;20635;55.812;37.560;2023-04-27T04:55:48;98824.97;;;26.52;30.71
34370;BME280;20635;55.812;37.560;2023-04-27T04:58:14;98820.53;;;26.51;30.88
34370;BME280;20635;55.812;37.560;2023-04-27T05:00:40;98824.16;;;26.52;30.70
34370;BME280;20635;55.812;37.560;2023-04-27T05:03:06;98824.16;;;26.52;30.69
34370;BME280;20635;55.812;37.560;2023-04-27T05:05:32;98821.34;;;26.52;30.82
34370;BME280;20635;55.812;37.560;2023-04-27T05:07:58;98820.53;;;26.51;30.69
34370;BME280;20635;55.812;37.560;2023-04-27T05:10:23;98820.53;;;26.51;30.69
34370;BME280;20635;55.812;37.560;2023-04-27T05:12:49;98826.16;;;26.51;30.67
34370;BME280;20635;55.812;37.560;2023-04-27T05:15:15;98826.16;;;26.51;30.69
34370;BME280;20635;55.812;37.560;2023-04-27T05:17:41;98826.97;;;26.52;30.77
34370;BME280;20635;55.812;37.560;2023-04-27T05:20:07;98830.94;;;26.51;30.62
34370;BME280;20635;55.812;37.560;2023-04-27T05:22:33;98834.56;;;26.51;30.70
34370;BME280;20635;55.812;37.560;2023-04-27T05:24:59;98836.19;;;26.52;30.80
34370;BME280;20635;55.812;37.560;2023-04-27T05:27:25;98837.38;;;26.51;30.69
34370;BME280;20635;55.812;37.560;2023-04-27T05:29:51;98833.38;;;26.52;30.67
34370;BME280;20635;55.812;37.560;2023-04-27T05:32:16;98832.56;;;26.52;30.74
34370;BME280;20635;55.812;37.560;2023-04-27T05:34:42;98827.78;;;26.52;30.69
34370;BME280;20635;55.812;37.560;2023-04-27T05:37:09;98836.19;;;26.52;30.63
34370;BME280;20635;55.812;37.560;2023-04-27T05:39:36;98834.56;;;26.51;30.65
34370;BME280;20635;55.812;37.560;2023-04-27T05:42:02;98841.00;;;26.52;30.80
34370;BME280;20635;55.812;37.560;2023-04-27T05:44:27;98841.00;;;26.52;30.84
34370;BME280;20635;55.812;37.560;2023-04-27T05:46:53;98832.56;;;26.52;30.88
34370;BME280;20635;55.812;37.560;2023-04-27T05:49:20;98836.19;;;26.52;30.77
34370;BME280;20635;55.812;37.560;2023-04-27T05:51:46;98841.81;;;26.52;30.88
34370;BME280;20635;55.812;37.560;2023-04-27T05:54:12;98839.00;;;26.52;30.78
34370;BME280;20635;55.812;37.560;2023-04-27T05:56:38;98834.22;;;26.53;31.00
34370;BME280;20635;55.812;37.560;2023-04-27T05:59:03;98832.25;;;26.53;30.88
34370;BME280;20635;55.812;37.560;2023-04-27T06:01:29;98835.84;;;26.54;30.75
34370;BME280;20635;55.812;37.560;2023-04-27T06:03:55;98832.69;;;26.55;30.83
34370;BME280;20635;55.812;37.560;2023-04-27T06:06:25;98833.06;;;26.54;30.76
34370;BME280;20635;55.812;37.560;2023-04-27T06:08:52;98837.47;;;26.55;30.74
34370;BME280;20635;55.812;37.560;2023-04-27T06:11:18;98842.28;;;26.54;30.76
34370;BME280;20635;55.812;37.560;2023-04-27T06:13:43;98839.47;;;26.54;30.80
34370;BME280;20635;55.812;37.560;2023-04-27T06:16:09;98837.47;;;26.55;30.80
34370;BME280;20635;55.812;37.560;2023-04-27T06:18:35;98843.09;;;26.55;30.90
34370;BME280;20635;55.812;37.560;2023-04-27T06:21:01;98845.09;;;26.54;30.78
34370;BME280;20635;55.812;37.560;2023-04-27T06:23:27;98845.09;;;26.54;30.83
34370;BME280;20635;55.812;37.560;2023-04-27T06:25:52;98850.34;;;26.56;30.98
34370;BME280;20635;55.812;37.560;2023-04-27T06:28:18;98856.78;;;26.56;30.84
34370;BME280;20635;55.812;37.560;2023-04-27T06:30:44;98853.97;;;26.56;30.76
34370;BME280;20635;55.812;37.560;2023-04-27T06:33:10;98857.59;;;26.57;30.76
34370;BME280;20635;55.812;37.560;2023-04-27T06:35:35;98854.78;;;26.57;30.68
34370;BME280;20635;55.812;37.560;2023-04-27T06:38:01;98846.34;;;26.57;30.91
34370;BME280;20635;55.812;37.560;2023-04-27T06:40:27;98852.81;;;26.58;30.73
34370;BME280;20635;55.812;37.560;2023-04-27T06:42:53;98850.00;;;26.58;30.89
34370;BME280;20635;55.812;37.560;2023-04-27T06:45:18;98849.16;;;26.57;30.78
34370;BME280;20635;55.812;37.560;2023-04-27T06:47:44;98859.25;;;26.58;30.70
34370;BME280;20635;55.812;37.560;2023-04-27T06:50:10;98858.44;;;26.58;30.85
34370;BME280;20635;55.812;37.560;2023-04-27T06:52:36;98862.88;;;26.59;30.96
34370;BME280;20635;55.812;37.560;2023-04-27T06:55:02;98864.50;;;26.60;30.80
34370;BME280;20635;55.812;37.560;2023-04-27T06:57:28;98865.69;;;26.59;30.76
34370;BME280;20635;55.812;37.560;2023-04-27T06:59:53;98862.88;;;26.59;30.77
34370;BME280;20635;55.812;37.560;2023-04-27T07:02:19;98862.50;;;26.60;30.92
34370;BME280;20635;55.812;37.560;2023-04-27T07:04:45;98858.88;;;26.60;30.84
34370;BME280;20635;55.812;37.560;2023-04-27T07:07:11;98861.69;;;26.60;30.89
34370;BME280;20635;55.812;37.560;2023-04-27T07:09:37;98861.69;;;26.60;30.72
34370;BME280;20635;55.812;37.560;2023-04-27T07:12:03;98854.06;;;26.60;30.80
34370;BME280;20635;55.812;37.560;2023-04-27T07:14:29;98853.25;;;26.60;30.71
34370;BME280;20635;55.812;37.560;2023-04-27T07:16:54;98853.25;;;26.60;30.66
34370;BME280;20635;55.812;37.560;2023-04-27T07:19:20;98861.69;;;26.60;30.89
34370;BME280;20635;55.812;37.560;2023-04-27T07:21:46;98853.25;;;26.60;30.80
34370;BME280;20635;55.812;37.560;2023-04-27T07:24:12;98857.69;;;26.61;30.83
34370;BME280;20635;55.812;37.560;2023-04-27T07:26:38;98856.88;;;26.60;30.87
34370;BME280;20635;55.812;37.560;2023-04-27T07:29:03;98856.88;;;26.60;30.71
34370;BME280;20635;55.812;37.560;2023-04-27T07:31:29;98855.69;;;26.61;30.90
34370;BME280;20635;55.812;37.560;2023-04-27T07:33:56;98855.69;;;26.61;30.90
34370;BME280;20635;55.812;37.560;2023-04-27T07:36:22;98864.13;;;26.61;30.64
34370;BME280;20635;55.812;37.560;2023-04-27T07:38:48;98858.50;;;26.61;30.71
34370;BME280;20635;55.812;37.560;2023-04-27T07:41:14;98864.97;;;26.62;30.74
34370;BME280;20635;55.812;37.560;2023-04-27T07:43:40;98864.13;;;26.61;30.81
34370;BME280;20635;55.812;37.560;2023-04-27T07:46:07;98876.22;;;26.62;30.80
34370;BME280;20635;55.812;37.560;2023-04-27T07:48:33;98864.13;;;26.61;30.81
34370;BME280;20635;55.812;37.560;2023-04-27T07:50:59;98873.41;;;26.62;30.71
34370;BME280;20635;55.812;37.560;2023-04-27T07:53:25;98874.56;;;26.61;30.72
34370;BME280;20635;55.812;37.560;2023-04-27T07:55:51;98879.84;;;26.62;30.84
34370;BME280;20635;55.812;37.560;2023-04-27T07:58:17;98874.56;;;26.61;30.85
34370;BME280;20635;55.812;37.560;2023-04-27T08:00:44;98867.78;;;26.62;30.95
34370;BME280;20635;55.812;37.560;2023-04-27T08:03:10;98873.41;;;26.62;30.86
34370;BME280;20635;55.812;37.560;2023-04-27T08:05:36;98867.78;;;26.62;30.73
34370;BME280;20635;55.812;37.560;2023-04-27T08:08:02;98879.84;;;26.62;30.99
34370;BME280;20635;55.812;37.560;2023-04-27T08:10:27;98877.84;;;26.63;30.79
34370;BME280;20635;55.812;37.560;2023-04-27T08:12:53;98877.84;;;26.63;30.81
34370;BME280;20635;55.812;37.560;2023-04-27T08:15:19;98874.22;;;26.62;30.87
34370;BME280;20635;55.812;37.560;2023-04-27T08:17:45;98868.59;;;26.62;30.86
34370;BME280;20635;55.812;37.560;2023-04-27T08:20:11;98865.78;;;26.62;30.82
34370;BME280;20635;55.812;37.560;2023-04-27T08:22:38;98868.59;;;26.62;30.75
34370;BME280;20635;55.812;37.560;2023-04-27T08:25:04;98854.53;;;26.62;30.84
34370;BME280;20635;55.812;37.560;2023-04-27T08:27:30;98862.97;;;26.62;30.84
34370;BME280;20635;55.812;37.560;2023-04-27T08:29:56;98864.97;;;26.62;30.68
34370;BME280;20635;55.812;37.560;2023-04-27T08:32:23;98874.22;;;26.62;30.88
34370;BME280;20635;55.812;37.560;2023-04-27T08:34:48;98865.78;;;26.62;30.75
34370;BME280;20635;55.812;37.560;2023-04-27T08:37:14;98867.41;;;26.63;30.70
34370;BME280;20635;55.812;37.560;2023-04-27T08:39:40;98860.16;;;26.62;30.54
34370;BME280;20635;55.812;37.560;2023-04-27T08:42:10;98860.97;;;26.63;30.85
34370;BME280;20635;55.812;37.560;2023-04-27T08:44:42;98873.03;;;26.63;30.93
34370;BME280;20635;55.812;37.560;2023-04-27T08:47:09;98858.50;;;26.61;30.71
34370;BME280;20635;55.812;37.560;2023-04-27T08:49:35;98865.41;;;26.64;30.99
34370;BME280;20635;55.812;37.560;2023-04-27T08:52:03;98865.41;;;26.64;30.88
34370;BME280;20635;55.812;37.560;2023-04-27T08:54:29;98867.41;;;26.63;30.89
34370;BME280;20635;55.812;37.560;2023-04-27T08:56:55;98866.59;;;26.63;30.96
34370;BME280;20635;55.812;37.560;2023-04-27T08:59:21;98871.03;;;26.64;30.90
34370;BME280;20635;55.812;37.560;2023-04-27T09:01:47;98871.84;;;26.64;30.75
34370;BME280;20635;55.812;37.560;2023-04-27T09:04:13;98858.97;;;26.63;31.03
34370;BME280;20635;55.812;37.560;2023-04-27T09:06:40;98863.41;;;26.64;30.90
34370;BME280;20635;55.812;37.560;2023-04-27T09:09:05;98855.81;;;26.65;30.86
34370;BME280;20635;55.812;37.560;2023-04-27T09:11:36;98862.59;;;26.64;30.75
34370;BME280;20635;55.812;37.560;2023-04-27T09:14:03;98872.66;;;26.65;30.98
34370;BME280;20635;55.812;37.560;2023-04-27T09:16:39;98870.66;;;26.65;30.76
34370;BME280;20635;55.812;37.560;2023-04-27T09:19:05;98864.22;;;26.65;30.82
34370;BME280;20635;55.812;37.560;2023-04-27T09:21:31;98865.84;;;26.66;30.76
34370;BME280;20635;55.812;37.560;2023-04-27T09:23:57;98863.03;;;26.66;30.76
34370;BME280;20635;55.812;37.560;2023-04-27T09:26:23;98860.22;;;26.66;30.80
34370;BME280;20635;55.812;37.560;2023-04-27T09:28:51;98871.47;;;26.66;30.75
34370;BME280;20635;55.812;37.560;2023-04-27T09:31:17;98871.13;;;26.67;30.75
34370;BME280;20635;55.812;37.560;2023-04-27T09:33:43;98873.94;;;26.67;30.74
34370;BME280;20635;55.812;37.560;2023-04-27T09:36:10;98869.94;;;26.68;30.85
34370;BME280;20635;55.812;37.560;2023-04-27T09:38:36;98874.75;;;26.68;30.80
34370;BME280;20635;55.812;37.560;2023-04-27T09:41:02;98867.94;;;26.69;30.76
34370;BME280;20635;55.812;37.560;2023-04-27T09:43:28;98868.75;;;26.69;30.83
34370;BME280;20635;55.812;37.560;2023-04-27T09:45:55;98857.53;;;26.69;30.73
34370;BME280;20635;55.812;37.560;2023-04-27T09:48:21;98858.34;;;26.70;30.62
34370;BME280;20635;55.812;37.560;2023-04-27T09:50:47;98861.97;;;26.70;30.88
34370;BME280;20635;55.812;37.560;2023-04-27T09:53:14;98857.19;;;26.71;30.99
34370;BME280;20635;55.812;37.560;2023-04-27T09:55:47;98859.63;;;26.72;30.88
34370;BME280;20635;55.812;37.560;2023-04-27T10:09:20;98866.50;;;26.75;30.84
34370;BME280;20635;55.812;37.560;2023-04-27T10:11:50;98859.25;;;26.74;30.88
34370;BME280;20635;55.812;37.560;2023-04-27T10:14:17;98857.25;;;26.74;30.76
34370;BME280;20635;55.812;37.560;2023-04-27T10:16:49;98866.50;;;26.75;30.88
34370;BME280;20635;55.812;37.560;2023-04-27T10:19:15;98865.34;;;26.76;30.84
34370;BME280;20635;55.812;37.560;2023-04-27T10:21:57;98868.97;;;26.76;30.79
34370;BME280;20635;55.812;37.560;2023-04-27T10:24:30;98866.97;;;26.77;30.68
34370;BME280;20635;55.812;37.560;2023-04-27T10:26:59;98855.72;;;26.77;30.68
34370;BME280;20635;55.812;37.560;2023-04-27T10:29:33;98867.78;;;26.77;30.64
34370;BME280;20635;55.812;37.560;2023-04-27T10:32:04;98853.72;;;26.77;30.73
34370;BME280;20635;55.812;37.560;2023-04-27T10:34:32;98858.53;;;26.77;30.76
34370;BME280;20635;55.812;37.560;2023-04-27T10:37:08;98851.72;;;26.78;30.58
34370;BME280;20635;55.812;37.560;2023-04-27T10:39:35;98848.53;;;26.79;30.72
34370;BME280;20635;55.812;37.560;2023-04-27T10:42:02;98855.81;;;26.80;30.77
34370;BME280;20635;55.812;37.560;2023-04-27T10:44:28;98849.03;;;26.81;30.58
34370;BME280;20635;55.812;37.560;2023-04-27T10:46:55;98852.63;;;26.82;30.66
34370;BME280;20635;55.812;37.560;2023-04-27T10:49:21;98852.63;;;26.82;30.79
34370;BME280;20635;55.812;37.560;2023-04-27T10:51:50;98858.25;;;26.82;30.58
34370;BME280;20635;55.812;37.560;2023-04-27T10:54:16;98863.06;;;26.81;30.67
34370;BME280;20635;55.812;37.560;2023-04-27T10:56:43;98864.69;;;26.83;30.65
34370;BME280;20635;55.812;37.560;2023-04-27T10:59:09;98875.94;;;26.83;30.61
34370;BME280;20635;55.812;37.560;2023-04-27T11:01:35;98873.13;;;26.83;30.77
34370;BME280;20635;55.812;37.560;2023-04-27T11:04:01;98868.69;;;26.81;30.78
34370;BME280;20635;55.812;37.560;2023-04-27T11:06:28;98887.19;;;26.83;30.79
34370;BME280;20635;55.812;37.560;2023-04-27T11:11:42;98896.00;;;26.81;30.59
34370;BME280;20635;55.812;37.560;2023-04-27T11:14:08;98895.63;;;26.83;30.89
34370;BME280;20635;55.812;37.560;2023-04-27T11:16:34;98890.00;;;26.83;30.74
34370;BME280;20635;55.812;37.560;2023-04-27T11:19:04;98890.00;;;26.83;30.88
34370;BME280;20635;55.812;37.560;2023-04-27T11:21:30;98890.00;;;26.83;30.85
34370;BME280;20635;55.812;37.560;2023-04-27T11:24:02;98887.66;;;26.85;30.92
34370;BME280;20635;55.812;37.560;2023-04-27T11:26:27;98881.66;;;26.86;30.88
34370;BME280;20635;55.812;37.560;2023-04-27T11:28:57;98887.72;;;26.88;31.16
34370;BME280;20635;55.812;37.560;2023-04-27T11:31:23;98878.94;;;26.90;31.18
34370;BME280;20635;55.812;37.560;2023-04-27T11:33:49;98888.63;;;26.92;31.35
34370;BME280;20635;55.812;37.560;2023-04-27T11:36:16;98905.59;;;26.96;31.29
34370;BME280;20635;55.812;37.560;2023-04-27T11:38:42;98907.22;;;26.97;31.37
34370;BME280;20635;55.812;37.560;2023-04-27T11:48:41;98903.22;;;26.98;31.54
34370;BME280;20635;55.812;37.560;2023-04-27T11:51:08;98891.66;;;26.99;31.53
34370;BME280;20635;55.812;37.560;2023-04-27T11:53:36;98890.09;;;27.02;31.81
34370;BME280;20635;55.812;37.560;2023-04-27T11:56:02;98893.00;;;27.05;31.63
34370;BME280;20635;55.812;37.560;2023-04-27T11:58:31;98890.31;;;27.09;31.87
34370;BME280;20635;55.812;37.560;2023-04-27T12:01:01;98897.22;;;27.12;31.80
34370;BME280;20635;55.812;37.560;2023-04-27T12:03:27;98895.28;;;27.16;31.74
34370;BME280;20635;55.812;37.560;2023-04-27T12:05:54;98894.56;;;27.19;31.86
34370;BME280;20635;55.812;37.560;2023-04-27T12:08:19;98887.41;;;27.21;31.95
34370;BME280;20635;55.812;37.560;2023-04-27T12:10:45;98891.13;;;27.25;31.93
34370;BME280;20635;55.812;37.560;2023-04-27T12:13:11;98879.13;;;27.28;31.89
34370;BME280;20635;55.812;37.560;2023-04-27T12:15:38;98886.03;;;27.31;32.11
34370;BME280;20635;55.812;37.560;2023-04-27T12:18:05;98890.91;;;27.34;31.85
34370;BME280;20635;55.812;37.560;2023-04-27T12:20:31;98879.75;;;27.38;31.89
34370;BME280;20635;55.812;37.560;2023-04-27T12:22:57;98883.84;;;27.40;31.95
34370;BME280;20635;55.812;37.560;2023-04-27T12:25:22;98881.47;;;27.42;31.88
34370;BME280;20635;55.812;37.560;2023-04-27T12:27:49;98880.28;;;27.43;31.95
34370;BME280;20635;55.812;37.560;2023-04-27T12:30:15;98870.69;;;27.44;31.87
34370;BME280;20635;55.812;37.560;2023-04-27T12:32:41;98880.38;;;27.47;31.93
34370;BME280;20635;55.812;37.560;2023-04-27T12:35:07;98871.91;;;27.47;32.01
34370;BME280;20635;55.812;37.560;2023-04-27T12:37:34;98867.91;;;27.48;32.22
34370;BME280;20635;55.812;37.560;2023-04-27T12:39:59;98867.56;;;27.49;32.04
34370;BME280;20635;55.812;37.560;2023-04-27T12:42:26;98872.44;;;27.52;32.16
34370;BME280;20635;55.812;37.560;2023-04-27T12:44:52;98870.53;;;27.56;32.54
34370;BME280;20635;55.812;37.560;2023-04-27T12:47:20;98873.09;;;27.62;32.41
34370;BME280;20635;55.812;37.560;2023-04-27T12:49:46;98870.34;;;27.65;32.81
34370;BME280;20635;55.812;37.560;2023-04-27T12:52:12;98865.25;;;27.71;32.58
34370;BME280;20635;55.812;37.560;2023-04-27T12:54:38;98865.34;;;27.74;32.72
34370;BME280;20635;55.812;37.560;2023-04-27T12:57:03;98868.25;;;27.78;33.09
34370;BME280;20635;55.812;37.560;2023-04-27T12:59:32;98865.13;;;27.83;33.12
34370;BME280;20635;55.812;37.560;2023-04-27T13:01:59;98867.22;;;27.86;33.22
34370;BME280;20635;55.812;37.560;2023-04-27T13:04:26;98865.31;;;27.90;32.95
34370;BME280;20635;55.812;37.560;2023-04-27T13:06:52;98860.56;;;27.94;33.07